createdAt,value
2023-02-16T00:01:59.677Z,100408.80
2023-02-16T00:05:01.193Z,100402.88
2023-02-16T00:08:02.996Z,100402.67
2023-02-16T00:11:04.820Z,100399.76
2023-02-16T00:14:09.432Z,100397.98
2023-02-16T00:17:11.503Z,100398.52
2023-02-16T00:20:17.503Z,100400.59
2023-02-16T00:23:19.080Z,100399.14
2023-02-16T00:26:24.085Z,100393.13
2023-02-16T00:29:32.463Z,100389.48
2023-02-16T00:32:34.022Z,100386.92
2023-02-16T00:35:35.566Z,100384.91
2023-02-16T00:38:37.384Z,100378.41
2023-02-16T00:41:39.336Z,100377.52
2023-02-16T00:44:46.110Z,100375.77
2023-02-16T00:47:50.402Z,100370.97
2023-02-16T00:50:52.013Z,100362.62
2023-02-16T00:53:53.552Z,100359.88
2023-02-16T00:56:55.099Z,100356.81
2023-02-16T01:00:06.808Z,100351.92
2023-02-16T01:03:16.110Z,100349.61
2023-02-16T01:06:17.799Z,100348.77
2023-02-16T01:09:20.794Z,100342.94
2023-02-16T01:12:22.377Z,100345.89
2023-02-16T01:15:25.250Z,100342.38
2023-02-16T01:18:26.867Z,100342.88
2023-02-16T01:21:28.468Z,100340.05
2023-02-16T01:24:30.173Z,100338.45
2023-02-16T01:27:31.871Z,100328.03
2023-02-16T01:30:33.469Z,100318.79
2023-02-16T01:33:35.043Z,100313.92
2023-02-16T01:36:39.468Z,100317.33
2023-02-16T01:39:44.339Z,100314.75
2023-02-16T01:42:50.778Z,100308.09
2023-02-16T01:46:07.692Z,100307.21
2023-02-16T01:49:17.565Z,100299.06
2023-02-16T01:52:25.199Z,100294.14
2023-02-16T01:55:31.513Z,100290.21
2023-02-16T01:58:42.855Z,100289.85
2023-02-16T02:01:51.189Z,100291.09
2023-02-16T02:04:55.990Z,100289.20
2023-02-16T02:08:19.307Z,100285.92
2023-02-16T02:11:28.096Z,100286.48
2023-02-16T02:14:35.529Z,100280.20
2023-02-16T02:17:37.064Z,100275.20
2023-02-16T02:20:53.033Z,100270.77
2023-02-16T02:24:32.096Z,100276.55
2023-02-16T02:27:37.693Z,100277.88
2023-02-16T02:30:48.635Z,100274.36
2023-02-16T02:34:03.913Z,100271.66
2023-02-16T02:37:28.964Z,100269.80
2023-02-16T02:41:12.630Z,100276.64
2023-02-16T02:44:18.932Z,100277.91
2023-02-16T02:47:21.564Z,100276.06
2023-02-16T02:50:42.037Z,100277.71
2023-02-16T02:53:47.971Z,100277.40
2023-02-16T02:57:11.769Z,100280.12
2023-02-16T03:00:37.817Z,100275.02
2023-02-16T03:03:44.375Z,100277.48
2023-02-16T03:06:49.106Z,100278.91
2023-02-16T03:09:50.964Z,100274.08
2023-02-16T03:12:52.552Z,100274.61
2023-02-16T03:15:54.681Z,100280.19
2023-02-16T03:18:56.466Z,100284.85
2023-02-16T03:21:58.560Z,100287.98
2023-02-16T03:25:00.174Z,100292.34
2023-02-16T03:28:04.334Z,100293.08
2023-02-16T03:31:07.576Z,100292.98
2023-02-16T03:34:09.406Z,100292.57
2023-02-16T03:37:11.025Z,100294.82
2023-02-16T03:40:14.894Z,100298.21
2023-02-16T03:43:16.636Z,100303.09
2023-02-16T03:46:18.379Z,100299.30
2023-02-16T03:49:20.740Z,100298.42
2023-02-16T03:52:22.667Z,100302.10
2023-02-16T03:55:25.415Z,100301.85
2023-02-16T03:58:27.139Z,100296.55
2023-02-16T04:01:28.993Z,100288.46
2023-02-16T04:04:30.834Z,100284.57
2023-02-16T04:07:33.554Z,100281.41
2023-02-16T04:10:37.000Z,100282.41
2023-02-16T04:13:38.846Z,100276.10
2023-02-16T04:16:40.836Z,100273.11
2023-02-16T04:19:42.379Z,100275.14
2023-02-16T04:22:45.107Z,100271.57
2023-02-16T04:25:46.606Z,100270.94
2023-02-16T04:28:48.290Z,100267.02
2023-02-16T04:31:50.240Z,100271.38
2023-02-16T04:34:51.874Z,100275.22
2023-02-16T04:37:53.465Z,100277.92
2023-02-16T04:40:54.961Z,100279.66
2023-02-16T04:43:56.512Z,100276.44
2023-02-16T04:46:58.142Z,100269.33
2023-02-16T04:49:59.798Z,100264.38
2023-02-16T04:53:01.384Z,100265.00
2023-02-16T04:56:03.175Z,100266.53
2023-02-16T04:59:04.680Z,100260.27
2023-02-16T05:02:06.308Z,100257.99
2023-02-16T05:05:08.534Z,100252.70
2023-02-16T05:08:10.270Z,100251.10
2023-02-16T05:11:12.285Z,100254.29
2023-02-16T05:14:26.175Z,100250.94
2023-02-16T05:17:27.855Z,100252.75
2023-02-16T05:20:29.645Z,100251.98
2023-02-16T05:23:31.238Z,100255.77
2023-02-16T05:26:34.412Z,100254.15
2023-02-16T05:29:36.031Z,100252.69
2023-02-16T05:32:37.564Z,100253.19
2023-02-16T05:35:39.227Z,100255.17
2023-02-16T05:38:40.878Z,100252.09
2023-02-16T05:41:42.597Z,100251.88
2023-02-16T05:44:44.211Z,100247.75
2023-02-16T05:47:47.291Z,100243.73
2023-02-16T05:50:49.059Z,100250.19
2023-02-16T05:53:51.059Z,100255.50
2023-02-16T05:56:52.850Z,100256.13
2023-02-16T05:59:54.328Z,100257.20
2023-02-16T06:02:55.915Z,100259.25
2023-02-16T06:06:00.471Z,100258.48
2023-02-16T06:09:02.108Z,100262.34
2023-02-16T06:12:04.174Z,100262.23
2023-02-16T06:15:05.992Z,100267.67
2023-02-16T06:18:07.451Z,100262.92
2023-02-16T06:21:09.167Z,100262.77
2023-02-16T06:24:12.516Z,100265.89
2023-02-16T06:27:14.188Z,100267.95
2023-02-16T06:30:16.549Z,100266.48
2023-02-16T06:33:18.147Z,100266.70
2023-02-16T06:36:20.778Z,100268.88
2023-02-16T06:39:22.559Z,100268.08
2023-02-16T06:42:24.097Z,100267.71
2023-02-16T06:45:25.645Z,100262.90
2023-02-16T06:48:27.367Z,100255.84
2023-02-16T06:51:29.574Z,100255.02
2023-02-16T06:54:31.230Z,100250.31
2023-02-16T06:57:32.801Z,100256.17
2023-02-16T07:00:34.711Z,100261.64
2023-02-16T07:03:41.884Z,100261.80
2023-02-16T07:06:43.510Z,100260.45
2023-02-16T07:09:45.218Z,100263.19
2023-02-16T07:12:47.957Z,100262.16
2023-02-16T07:15:49.600Z,100256.35
2023-02-16T07:18:51.325Z,100261.29
2023-02-16T07:21:52.913Z,100261.96
2023-02-16T07:24:54.490Z,100265.05
2023-02-16T07:27:56.176Z,100263.69
2023-02-16T07:30:57.969Z,100265.23
2023-02-16T07:33:59.467Z,100271.55
2023-02-16T07:37:01.051Z,100272.06
2023-02-16T07:40:02.686Z,100272.41
2023-02-16T07:43:05.757Z,100271.20
2023-02-16T07:46:07.355Z,100274.23
2023-02-16T07:49:09.113Z,100278.63
2023-02-16T07:52:10.966Z,100272.80
2023-02-16T07:55:12.626Z,100269.67
2023-02-16T07:58:14.678Z,100267.10
2023-02-16T08:01:16.181Z,100262.16
2023-02-16T08:04:17.846Z,100258.70
2023-02-16T08:07:21.078Z,100253.71
2023-02-16T08:10:22.744Z,100253.48
2023-02-16T08:13:24.572Z,100255.08
2023-02-16T08:16:27.078Z,100250.68
2023-02-16T08:19:28.911Z,100254.12
2023-02-16T08:22:30.951Z,100256.43
2023-02-16T08:25:36.309Z,100256.38
2023-02-16T08:28:38.090Z,100255.91
2023-02-16T08:31:40.099Z,100261.33
2023-02-16T08:34:43.382Z,100259.02
2023-02-16T08:37:45.272Z,100260.19
2023-02-16T08:40:50.364Z,100255.32
2023-02-16T08:43:52.106Z,100250.28
2023-02-16T08:46:55.628Z,100249.30
2023-02-16T08:49:57.221Z,100246.84
2023-02-16T08:52:58.645Z,100246.33
2023-02-16T08:56:04.376Z,100249.20
2023-02-16T08:59:06.137Z,100248.98
2023-02-16T09:02:07.744Z,100246.23
2023-02-16T09:05:09.474Z,100244.55
2023-02-16T09:08:11.165Z,100240.01
2023-02-16T09:11:15.323Z,100237.38
2023-02-16T09:14:20.883Z,100233.21
2023-02-16T09:17:22.422Z,100237.38
2023-02-16T09:20:24.091Z,100239.48
2023-02-16T09:23:25.685Z,100235.41
2023-02-16T09:26:30.247Z,100235.17
2023-02-16T09:29:31.959Z,100231.34
2023-02-16T09:32:33.680Z,100237.19
2023-02-16T09:35:38.204Z,100230.63
2023-02-16T09:38:40.310Z,100226.05
2023-02-16T09:41:57.588Z,100228.57
2023-02-16T09:45:07.306Z,100235.91
2023-02-16T09:48:23.494Z,100231.89
2023-02-16T09:51:34.763Z,100221.90
2023-02-16T09:54:39.347Z,100219.77
2023-02-16T09:58:07.785Z,100214.91
2023-02-16T10:01:19.897Z,100215.58
2023-02-16T10:04:36.132Z,100213.66
2023-02-16T10:07:57.635Z,100217.40
2023-02-16T10:11:08.110Z,100214.91
2023-02-16T10:14:30.489Z,100211.04
2023-02-16T10:17:38.244Z,100212.02
2023-02-16T10:20:43.361Z,100214.16
2023-02-16T10:24:03.064Z,100218.84
2023-02-16T10:27:08.179Z,100214.23
2023-02-16T10:30:22.058Z,100212.83
2023-02-16T10:33:36.021Z,100209.61
2023-02-16T10:36:49.647Z,100210.43
2023-02-16T10:40:12.316Z,100210.29
2023-02-16T10:43:21.688Z,100212.16
2023-02-16T10:46:26.287Z,100213.23
2023-02-16T10:49:30.564Z,100212.27
2023-02-16T10:52:37.516Z,100206.00
2023-02-16T10:55:39.179Z,100199.92
2023-02-16T10:58:41.225Z,100201.75
2023-02-16T11:01:46.297Z,100194.71
2023-02-16T11:04:49.756Z,100192.19
2023-02-16T11:07:56.561Z,100188.39
2023-02-16T11:10:58.262Z,100187.90
2023-02-16T11:14:07.999Z,100184.98
2023-02-16T11:17:12.770Z,100179.04
2023-02-16T11:20:32.468Z,100170.47
2023-02-16T11:23:38.989Z,100164.73
2023-02-16T11:26:40.665Z,100165.04
2023-02-16T11:29:42.358Z,100154.38
2023-02-16T11:32:43.896Z,100151.36
2023-02-16T11:35:45.880Z,100147.14
2023-02-16T11:39:12.122Z,100139.56
2023-02-16T11:42:36.368Z,100130.26
2023-02-16T11:45:37.911Z,100126.04
2023-02-16T11:48:39.618Z,100119.92
2023-02-16T11:51:41.223Z,100110.80
2023-02-16T11:54:52.693Z,100109.41
2023-02-16T11:57:54.458Z,100105.50
2023-02-16T12:01:20.581Z,100105.66
2023-02-16T12:04:48.344Z,100095.63
2023-02-16T12:08:06.218Z,100096.41
2023-02-16T12:11:16.861Z,100089.67
2023-02-16T12:14:31.498Z,100088.60
2023-02-16T12:17:48.526Z,100080.04
2023-02-16T12:21:04.052Z,100077.63
2023-02-16T12:24:30.747Z,100066.48
2023-02-16T12:27:44.934Z,100067.73
2023-02-16T12:30:55.586Z,100065.41
2023-02-16T12:34:28.327Z,100067.55
2023-02-16T12:37:48.868Z,100064.15
2023-02-16T12:40:54.163Z,100059.02
2023-02-16T12:44:48.500Z,100050.98
2023-02-16T12:47:58.282Z,100048.24
2023-02-16T12:51:02.428Z,100048.81
2023-02-16T12:54:17.859Z,100038.30
2023-02-16T12:57:25.103Z,100036.98
2023-02-16T13:00:46.111Z,100031.60
2023-02-16T13:03:52.578Z,100029.30
2023-02-16T13:07:23.571Z,100026.61
2023-02-16T13:10:56.457Z,100019.69
2023-02-16T13:14:01.724Z,100013.25
2023-02-16T13:17:11.419Z,100016.21
2023-02-16T13:20:19.509Z,100015.42
2023-02-16T13:23:50.599Z,100010.11
2023-02-16T13:27:06.330Z,100005.21
2023-02-16T13:30:07.984Z,100012.35
2023-02-16T13:33:25.820Z,100014.43
2023-02-16T13:36:44.933Z,100017.90
2023-02-16T13:39:55.752Z,100023.16
2023-02-16T13:43:14.342Z,100012.90
2023-02-16T13:46:28.939Z,100011.62
2023-02-16T13:49:38.740Z,100013.23
2023-02-16T13:52:41.624Z,100015.35
2023-02-16T13:55:43.512Z,100009.16
2023-02-16T13:58:45.128Z,100004.58
2023-02-16T14:01:48.280Z,100007.29
2023-02-16T14:04:50.051Z,100006.25
2023-02-16T14:08:18.630Z,100005.72
2023-02-16T14:11:20.304Z,100001.27
2023-02-16T14:14:31.132Z,100004.86
2023-02-16T14:17:34.677Z,100005.04
2023-02-16T14:20:36.386Z,100005.22
2023-02-16T14:23:38.008Z,100004.77
2023-02-16T14:26:53.522Z,100003.35
2023-02-16T14:29:58.187Z,100005.70
2023-02-16T14:33:12.133Z,100001.48
2023-02-16T14:36:22.025Z,99997.16
2023-02-16T14:39:23.636Z,99995.39
2023-02-16T14:42:29.447Z,99996.17
2023-02-16T14:45:52.632Z,99995.00
2023-02-16T14:49:10.141Z,99997.60
2023-02-16T14:52:37.889Z,99996.90
2023-02-16T14:55:54.584Z,99995.80
2023-02-16T14:59:01.314Z,99993.17
2023-02-16T15:02:24.446Z,99986.73
2023-02-16T15:05:33.790Z,99986.36
2023-02-16T15:08:38.012Z,99983.36
2023-02-16T15:11:50.626Z,99979.70
2023-02-16T15:15:04.460Z,99978.67
2023-02-16T15:18:06.019Z,99971.17
2023-02-16T15:21:12.426Z,99969.95
2023-02-16T15:24:22.993Z,99969.35
2023-02-16T15:27:25.101Z,99971.66
2023-02-16T15:30:38.913Z,99968.99
2023-02-16T15:33:42.347Z,99966.95
2023-02-16T15:36:45.268Z,99966.91
2023-02-16T15:40:02.944Z,99972.58
2023-02-16T15:43:18.508Z,99972.86
2023-02-16T15:46:24.694Z,99974.27
2023-02-16T15:49:28.528Z,99973.70
2023-02-16T15:52:35.414Z,99978.41
2023-02-16T15:55:43.076Z,99980.61
2023-02-16T15:58:44.657Z,99984.63
2023-02-16T16:01:46.640Z,99986.41
2023-02-16T16:04:54.450Z,99985.80
2023-02-16T16:07:57.250Z,99983.00
2023-02-16T16:10:59.038Z,99982.14
2023-02-16T16:14:02.176Z,99983.95
2023-02-16T16:17:03.993Z,99989.06
2023-02-16T16:20:27.581Z,99988.20
2023-02-16T16:23:29.434Z,99989.98
2023-02-16T16:26:32.492Z,99987.14
2023-02-16T16:29:42.966Z,99989.53
2023-02-16T16:32:44.748Z,99985.27
2023-02-16T16:35:48.566Z,99984.34
2023-02-16T16:39:08.679Z,99981.69
2023-02-16T16:42:22.186Z,99982.11
2023-02-16T16:45:41.435Z,99978.93
2023-02-16T16:48:48.985Z,99977.83
2023-02-16T16:51:53.651Z,99976.92
2023-02-16T16:54:55.311Z,99977.90
2023-02-16T16:58:06.669Z,99982.08
2023-02-16T17:01:08.525Z,99985.42
2023-02-16T17:04:10.227Z,99985.84
2023-02-16T17:07:11.843Z,99987.73
2023-02-16T17:10:13.430Z,99991.45
2023-02-16T17:13:16.793Z,99988.86
2023-02-16T17:16:28.067Z,99990.55
2023-02-16T17:19:29.664Z,99988.54
2023-02-16T17:22:31.250Z,99989.14
2023-02-16T17:25:34.522Z,99992.46
2023-02-16T17:28:36.209Z,99994.56
2023-02-16T17:31:37.959Z,99994.40
2023-02-16T17:34:39.654Z,99997.30
2023-02-16T17:37:41.227Z,100001.20
2023-02-16T17:40:42.985Z,100001.86
2023-02-16T17:43:44.640Z,100004.25
2023-02-16T17:46:46.395Z,100008.27
2023-02-16T17:49:47.980Z,100009.39
2023-02-16T17:52:49.605Z,100009.09
2023-02-16T17:55:53.603Z,100007.72
2023-02-16T17:58:55.292Z,100004.48
2023-02-16T18:01:56.894Z,100009.75
2023-02-16T18:04:58.529Z,100013.45
2023-02-16T18:08:00.129Z,100014.30
2023-02-16T18:11:01.614Z,100011.66
2023-02-16T18:14:03.265Z,100014.65
2023-02-16T18:17:05.596Z,100010.30
2023-02-16T18:20:07.689Z,100014.05
2023-02-16T18:23:09.527Z,100014.97
2023-02-16T18:26:14.984Z,100016.06
2023-02-16T18:29:16.929Z,100011.70
2023-02-16T18:32:18.556Z,100009.31
2023-02-16T18:35:20.455Z,100012.72
2023-02-16T18:38:23.151Z,100010.39
2023-02-16T18:41:24.785Z,100011.62
2023-02-16T18:44:26.872Z,100011.88
2023-02-16T18:47:28.570Z,100014.88
2023-02-16T18:50:30.452Z,100019.05
2023-02-16T18:53:32.218Z,100018.37
2023-02-16T18:56:33.829Z,100017.08
2023-02-16T18:59:35.648Z,100017.65
2023-02-16T19:02:37.129Z,100018.61
2023-02-16T19:05:38.827Z,100020.80
2023-02-16T19:08:40.573Z,100026.35
2023-02-16T19:11:42.161Z,100026.13
2023-02-16T19:14:43.843Z,100023.64
2023-02-16T19:17:45.584Z,100026.63
2023-02-16T19:20:47.202Z,100027.09
2023-02-16T19:23:49.079Z,100025.45
2023-02-16T19:26:50.711Z,100026.35
2023-02-16T19:29:52.416Z,100031.91
2023-02-16T19:32:53.948Z,100034.36
2023-02-16T19:36:04.044Z,100032.06
2023-02-16T19:39:05.933Z,100030.27
2023-02-16T19:42:07.519Z,100030.13
2023-02-16T19:45:09.562Z,100033.61
2023-02-16T19:48:11.252Z,100032.78
2023-02-16T19:51:13.908Z,100035.23
2023-02-16T19:54:15.543Z,100032.86
2023-02-16T19:57:17.124Z,100036.48
2023-02-16T20:00:18.907Z,100033.80
2023-02-16T20:03:20.611Z,100034.70
2023-02-16T20:06:23.552Z,100031.11
2023-02-16T20:09:25.275Z,100034.24
2023-02-16T20:12:26.788Z,100033.63
2023-02-16T20:15:28.672Z,100029.21
2023-02-16T20:18:30.205Z,100029.41
2023-02-16T20:21:31.988Z,100025.38
2023-02-16T20:24:33.476Z,100023.52
2023-02-16T20:27:35.116Z,100025.26
2023-02-16T20:30:36.701Z,100025.77
2023-02-16T20:33:38.344Z,100024.27
2023-02-16T20:36:40.034Z,100027.52
2023-02-16T20:39:41.870Z,100026.67
2023-02-16T20:42:43.532Z,100025.84
2023-02-16T20:45:45.152Z,100023.80
2023-02-16T20:48:46.696Z,100020.58
2023-02-16T20:51:48.388Z,100016.14
2023-02-16T20:54:49.974Z,100017.31
2023-02-16T20:57:51.671Z,100018.16
2023-02-16T21:00:53.442Z,100019.17
2023-02-16T21:03:56.169Z,100017.98
2023-02-16T21:06:57.710Z,100015.10
2023-02-16T21:09:59.341Z,100016.83
2023-02-16T21:13:00.855Z,100013.95
2023-02-16T21:16:02.478Z,100012.75
2023-02-16T21:19:11.690Z,100012.07
2023-02-16T21:22:21.787Z,100007.12
2023-02-16T21:25:23.420Z,100003.91
2023-02-16T21:28:25.122Z,100005.48
2023-02-16T21:31:27.176Z,100006.88
2023-02-16T21:34:28.885Z,100001.41
2023-02-16T21:37:30.510Z,99998.80
2023-02-16T21:40:32.263Z,99999.77
2023-02-16T21:43:33.820Z,99997.72
2023-02-16T21:46:38.264Z,99994.34
2023-02-16T21:49:39.850Z,99992.98
2023-02-16T21:52:41.426Z,99992.30
2023-02-16T21:55:43.101Z,99991.45
2023-02-16T21:58:45.097Z,99991.60
2023-02-16T22:01:49.109Z,99994.68
2023-02-16T22:04:50.856Z,99993.46
2023-02-16T22:07:52.447Z,99996.85
2023-02-16T22:10:54.059Z,99995.98
2023-02-16T22:13:56.912Z,99997.68
2023-02-16T22:16:58.930Z,99997.35
2023-02-16T22:20:00.499Z,100000.94
2023-02-16T22:23:03.062Z,99997.53
2023-02-16T22:26:06.333Z,99996.68
2023-02-16T22:29:08.898Z,100000.05
2023-02-16T22:32:13.561Z,100002.89
2023-02-16T22:35:15.441Z,100000.16
2023-02-16T22:38:17.275Z,99999.48
2023-02-16T22:41:18.806Z,99996.43
2023-02-16T22:44:20.722Z,99995.95
2023-02-16T22:47:22.278Z,99994.59
2023-02-16T22:50:23.930Z,99993.38
2023-02-16T22:53:27.029Z,99990.10
2023-02-16T22:56:30.515Z,99990.20
2023-02-16T22:59:32.149Z,99988.27
2023-02-16T23:02:34.445Z,99988.63
2023-02-16T23:05:36.241Z,99994.57
2023-02-16T23:08:37.802Z,99998.66
2023-02-16T23:11:39.705Z,100000.05
2023-02-16T23:14:41.375Z,100004.34
2023-02-16T23:17:42.920Z,100000.10
2023-02-16T23:20:44.611Z,100001.84
2023-02-16T23:23:47.849Z,99999.00
2023-02-16T23:26:49.551Z,100000.73
2023-02-16T23:29:51.072Z,99999.77
2023-02-16T23:32:52.884Z,100001.84
2023-02-16T23:35:54.414Z,100002.22
2023-02-16T23:39:05.765Z,100001.55
2023-02-16T23:42:07.298Z,100004.98
2023-02-16T23:45:09.284Z,100002.95
2023-02-16T23:48:10.818Z,100004.48
2023-02-16T23:51:12.739Z,99999.02
2023-02-16T23:54:14.549Z,99998.54
2023-02-16T23:57:16.402Z,99995.13
